New Paltz, NY

8:56 AM EST on November 24, 2014 (GMT -0500)
Dutchess County | Change Station
CLOSE
Current Station
Airport
Location: Poughkeepsie,
Elevation: 164 ft
Nearby Weather Stations
Active Advisory: Winter Storm Watch Active Notice: Public Information Statement

Elev 164 ft 41.63 °N, 73.88 °W | Updated 1 hour ago

Overcast
Overcast
64 °F
Feels Like 64 °F
N
15
Wind Variable Wind from South
Gusts 29 mph

Today
High -- | Low -- °F
--% Chance of Precip.
Yesterday
High -- | Low -- °F
Precip. -- in
6:56 AM 4:29 PM
Waxing Crescent, 5% visible
Pressure 29.63 in
Visibility 10.0 miles
Clouds Few 1500 ft
Mostly Cloudy 3300 ft
Overcast 3900 ft
Dew Point 59 °F
Humidity 84%
Rainfall 0.28 in
Snow Depth Not available.
UV 0 out of 12
Pollen .10 out of 12
Air Quality Not available.
Flu Activity Not available.
METAR KPOU 241253Z 17013G25KT 10SM FEW015 BKN033 OVC039 18/15 A2964 RMK AO2 PK WND 19033/1213 RAB05E36 SLP033 P0001 T01780150

More Conditions Fewer Conditions

Pressure 29.63 in
Visibility 10.0 miles
Clouds Few 1500 ft
Mostly Cloudy 3300 ft
Overcast 3900 ft
Dew Point 59 °F
Humidity 84%
Rainfall 0.28 in
Snow Depth Not available.
UV 0 out of 12
Pollen .10 out of 12
Air Quality Not available.
Flu Activity Not available.
METAR KPOU 241253Z 17013G25KT 10SM FEW015 BKN033 OVC039 18/15 A2964 RMK AO2 PK WND 19033/1213 RAB05E36 SLP033 P0001 T01780150

More Conditions Fewer Conditions

10-Day Weather Forecast

Almanac

Astronomy

Nov. 24, 2014 Rise Set
Actual Time
Civil Twilight
Nautical Twilight
Astronomical Twilight
Moon
Length of Visible Light
Length of Day
Tomorrow will be .
, % of the Moon is Illuminated

Today's Extremes

State Highs State Lows

Community

WunderPhotos

Upload Photos

1,773,332 photos uploaded!

WunderBlogs® & News

Nearby

Air Quality

  Air Quality AQ Index Pollutant
Not available.

Snow Depth

Station Depth Elevation

Earthquake Activity

City Distance Mag. Time & Date
Minimum magnitude displayed is 2.5.

Coastal Water Temperatures

Place Temperature

Nearby Weather Stations